createdAt,value
2023-03-30T00:01:02.729Z,3.15
2023-03-30T00:03:29.980Z,2.88
2023-03-30T00:06:03.416Z,2.60
2023-03-30T00:08:30.330Z,2.95
2023-03-30T00:11:06.311Z,2.80
2023-03-30T00:13:35.240Z,3.55
2023-03-30T00:16:03.564Z,3.60
2023-03-30T00:18:30.690Z,2.80
2023-03-30T00:20:58.521Z,2.88
2023-03-30T00:23:26.142Z,3.22
2023-03-30T00:25:53.064Z,3.17
2023-03-30T00:28:19.979Z,2.88
2023-03-30T00:30:48.661Z,3.30
2023-03-30T00:33:16.396Z,2.75
2023-03-30T00:35:43.356Z,2.17
2023-03-30T00:38:10.288Z,2.33
2023-03-30T00:40:38.515Z,2.20
2023-03-30T00:43:11.310Z,2.88
2023-03-30T00:45:38.353Z,2.33
2023-03-30T00:48:05.228Z,2.20
2023-03-30T00:50:41.992Z,2.15
2023-03-30T00:53:22.831Z,2.88
2023-03-30T00:55:52.930Z,2.53
2023-03-30T00:58:22.515Z,2.25
2023-03-30T01:00:49.987Z,2.28
2023-03-30T01:03:20.137Z,2.33
2023-03-30T01:05:48.866Z,2.10
2023-03-30T01:08:16.826Z,2.28
2023-03-30T01:10:45.201Z,1.95
2023-03-30T01:13:14.112Z,2.17
2023-03-30T01:15:54.933Z,1.67
2023-03-30T01:18:35.753Z,2.03
2023-03-30T01:21:31.666Z,2.17
2023-03-30T01:24:38.106Z,1.92
2023-03-30T01:27:21.975Z,2.05
2023-03-30T01:30:07.828Z,2.22
2023-03-30T01:32:45.249Z,1.70
2023-03-30T01:35:39.609Z,1.92
2023-03-30T01:38:21.440Z,1.80
2023-03-30T01:41:23.400Z,2.20
2023-03-30T01:44:12.033Z,2.15
2023-03-30T01:46:46.138Z,2.10
2023-03-30T01:49:31.773Z,1.75
2023-03-30T01:52:09.715Z,1.60
2023-03-30T01:54:46.659Z,2.47
2023-03-30T01:57:21.376Z,1.88
2023-03-30T01:59:54.940Z,2.10
2023-03-30T02:02:27.450Z,1.87
2023-03-30T02:04:57.867Z,1.88
2023-03-30T02:07:30.729Z,2.00
2023-03-30T02:10:03.037Z,2.13
2023-03-30T02:12:31.569Z,2.10
2023-03-30T02:15:02.792Z,1.98
2023-03-30T02:17:30.780Z,1.80
2023-03-30T02:19:59.122Z,2.80
2023-03-30T02:22:29.483Z,1.95
2023-03-30T02:24:58.357Z,2.45
2023-03-30T02:27:27.121Z,2.60
2023-03-30T02:29:54.700Z,2.88
2023-03-30T02:32:25.928Z,3.50
2023-03-30T02:35:19.149Z,2.85
2023-03-30T02:37:46.076Z,2.60
2023-03-30T02:40:38.553Z,3.13
2023-03-30T02:43:17.515Z,2.53
2023-03-30T02:46:22.637Z,3.70
2023-03-30T02:49:14.409Z,3.38
2023-03-30T02:52:22.470Z,3.60
2023-03-30T02:54:59.732Z,2.97
2023-03-30T02:58:14.277Z,3.42
2023-03-30T03:01:25.084Z,3.10
2023-03-30T03:03:59.426Z,3.10
2023-03-30T03:06:33.905Z,3.47
2023-03-30T03:09:01.747Z,3.88
2023-03-30T03:11:31.522Z,4.35
2023-03-30T03:13:59.848Z,3.92
2023-03-30T03:16:28.945Z,3.20
2023-03-30T03:19:09.741Z,3.42
2023-03-30T03:21:38.614Z,3.92
2023-03-30T03:24:06.632Z,3.80
2023-03-30T03:26:53.562Z,3.40
2023-03-30T03:29:23.109Z,4.82
2023-03-30T03:31:50.125Z,4.43
2023-03-30T03:34:20.251Z,4.00
2023-03-30T03:37:05.319Z,4.75
2023-03-30T03:39:33.877Z,3.65
2023-03-30T03:42:07.417Z,3.97
2023-03-30T03:44:40.573Z,4.30
2023-03-30T03:47:07.735Z,4.32
2023-03-30T03:49:34.527Z,4.40
2023-03-30T03:52:01.639Z,4.55
2023-03-30T03:54:28.472Z,5.45
2023-03-30T03:56:55.524Z,5.75
2023-03-30T03:59:22.542Z,6.30
2023-03-30T04:01:49.766Z,5.40
2023-03-30T04:04:16.784Z,5.88
2023-03-30T04:06:43.781Z,5.65
2023-03-30T04:09:10.743Z,6.00
2023-03-30T04:12:04.919Z,5.85
2023-03-30T04:14:38.852Z,4.90
2023-03-30T04:17:24.595Z,4.78
2023-03-30T04:20:29.210Z,4.85
2023-03-30T04:23:02.096Z,5.27
2023-03-30T04:25:57.911Z,5.63
2023-03-30T04:28:44.498Z,5.05
2023-03-30T04:31:22.707Z,5.65
2023-03-30T04:34:09.468Z,6.18
2023-03-30T04:36:37.894Z,5.70
2023-03-30T04:42:39.845Z,5.70
2023-03-30T04:45:21.082Z,5.40
2023-03-30T04:48:06.572Z,4.88
2023-03-30T04:50:52.376Z,5.32
2023-03-30T04:53:31.432Z,5.03
2023-03-30T04:56:16.693Z,5.97
2023-03-30T04:58:56.088Z,5.32
2023-03-30T05:01:41.215Z,5.70
2023-03-30T05:04:23.332Z,6.00
2023-03-30T05:07:11.004Z,5.97
2023-03-30T05:09:56.396Z,6.75
2023-03-30T05:12:56.780Z,6.38
2023-03-30T05:15:54.546Z,6.25
2023-03-30T05:18:44.757Z,5.85
2023-03-30T05:21:31.613Z,4.85
2023-03-30T05:24:13.808Z,5.97
2023-03-30T05:26:59.167Z,5.18
2023-03-30T05:29:29.384Z,5.75
2023-03-30T05:32:15.015Z,5.75
2023-03-30T05:35:09.026Z,6.25
2023-03-30T05:37:38.998Z,6.82
2023-03-30T05:40:24.500Z,5.20
2023-03-30T05:43:17.260Z,6.38
2023-03-30T05:45:46.999Z,6.55
2023-03-30T05:48:37.588Z,5.85
2023-03-30T05:51:23.255Z,6.35
2023-03-30T05:54:03.735Z,6.63
2023-03-30T05:56:51.820Z,6.85
2023-03-30T05:59:44.601Z,5.95
2023-03-30T06:02:34.996Z,6.25
2023-03-30T06:05:08.429Z,7.30
2023-03-30T06:07:35.522Z,6.95
2023-03-30T06:10:02.481Z,7.38
2023-03-30T06:12:31.576Z,5.70
2023-03-30T06:14:59.482Z,6.32
2023-03-30T06:17:34.088Z,6.57
2023-03-30T06:20:01.229Z,7.03
2023-03-30T06:22:31.423Z,6.88
2023-03-30T06:25:07.033Z,7.25
2023-03-30T06:27:34.238Z,7.38
2023-03-30T06:30:01.612Z,7.57
2023-03-30T06:32:28.726Z,5.97
2023-03-30T06:35:17.706Z,7.28
2023-03-30T06:37:45.388Z,7.63
2023-03-30T06:40:16.012Z,6.38
2023-03-30T06:42:47.142Z,6.90
2023-03-30T06:45:26.342Z,6.57
2023-03-30T06:47:54.440Z,6.93
2023-03-30T06:50:22.375Z,6.93
2023-03-30T06:53:04.505Z,6.10
2023-03-30T06:55:39.929Z,7.53
2023-03-30T06:58:08.364Z,6.63
2023-03-30T07:00:35.342Z,6.53
2023-03-30T07:03:21.013Z,7.10
2023-03-30T07:05:55.643Z,7.20
2023-03-30T07:08:35.866Z,7.13
2023-03-30T07:11:05.353Z,8.07
2023-03-30T07:13:34.643Z,7.90
2023-03-30T07:16:02.210Z,6.45
2023-03-30T07:18:31.718Z,6.97
2023-03-30T07:20:59.523Z,7.90
2023-03-30T07:23:31.196Z,7.10
2023-03-30T07:25:58.223Z,7.45
2023-03-30T07:28:40.417Z,7.97
2023-03-30T07:31:10.310Z,8.07
2023-03-30T07:33:40.058Z,8.00
2023-03-30T07:36:10.589Z,8.07
2023-03-30T07:38:38.497Z,8.57
2023-03-30T07:41:10.204Z,8.80
2023-03-30T07:43:37.353Z,8.90
2023-03-30T07:46:04.441Z,8.18
2023-03-30T07:48:37.182Z,8.07
2023-03-30T07:51:07.162Z,8.45
2023-03-30T07:53:38.110Z,8.38
2023-03-30T07:56:14.262Z,9.57
2023-03-30T07:58:46.681Z,8.45
2023-03-30T08:01:14.435Z,7.13
2023-03-30T08:04:00.944Z,7.35
2023-03-30T08:06:30.417Z,7.28
2023-03-30T08:08:59.180Z,8.18
2023-03-30T08:11:26.226Z,7.90
2023-03-30T08:13:53.053Z,7.70
2023-03-30T08:16:20.020Z,8.18
2023-03-30T08:18:48.331Z,6.40
2023-03-30T08:21:15.333Z,7.28
2023-03-30T08:23:42.220Z,6.93
2023-03-30T08:26:09.228Z,6.97
2023-03-30T08:28:36.575Z,7.78
2023-03-30T08:31:06.821Z,7.88
2023-03-30T08:33:35.201Z,7.88
2023-03-30T08:36:02.362Z,7.82
2023-03-30T08:38:29.411Z,7.22
2023-03-30T08:40:56.524Z,8.07
2023-03-30T08:43:29.283Z,6.90
2023-03-30T08:46:02.422Z,8.70
2023-03-30T08:48:37.335Z,7.13
2023-03-30T08:51:34.149Z,6.25
2023-03-30T08:54:05.582Z,6.90
2023-03-30T08:56:39.009Z,6.47
2023-03-30T08:59:27.102Z,7.40
2023-03-30T09:02:12.841Z,7.32
2023-03-30T09:04:42.955Z,5.95
2023-03-30T09:07:22.109Z,5.57
2023-03-30T09:09:53.531Z,7.15
2023-03-30T09:12:49.762Z,7.50
2023-03-30T09:15:31.759Z,6.70
2023-03-30T09:18:02.086Z,7.38
2023-03-30T09:20:31.439Z,6.28
2023-03-30T09:23:02.656Z,6.30
2023-03-30T09:25:44.932Z,6.55
2023-03-30T09:28:48.315Z,7.53
2023-03-30T09:31:24.957Z,6.60
2023-03-30T09:33:57.972Z,7.03
2023-03-30T09:36:53.124Z,6.57
2023-03-30T09:39:22.357Z,6.57
2023-03-30T09:42:01.103Z,7.45
2023-03-30T09:44:54.204Z,6.03
2023-03-30T09:47:25.951Z,7.72
2023-03-30T09:49:57.866Z,5.50
2023-03-30T09:52:27.913Z,5.70
2023-03-30T09:54:55.368Z,5.85
2023-03-30T09:57:29.075Z,7.80
2023-03-30T09:59:56.552Z,6.22
2023-03-30T10:02:27.676Z,7.10
2023-03-30T10:05:00.400Z,7.30
2023-03-30T10:07:41.927Z,6.72
2023-03-30T10:10:21.086Z,6.88
2023-03-30T10:12:50.910Z,6.97
2023-03-30T10:15:20.805Z,7.43
2023-03-30T10:17:48.858Z,6.57
2023-03-30T10:20:27.104Z,9.13
2023-03-30T10:23:05.656Z,6.82
2023-03-30T10:25:33.901Z,6.22
2023-03-30T10:28:04.970Z,7.57
2023-03-30T10:30:33.009Z,7.40
2023-03-30T10:33:02.341Z,6.75
2023-03-30T10:35:37.213Z,6.60
2023-03-30T10:38:06.593Z,6.95
2023-03-30T10:40:40.913Z,6.80
2023-03-30T10:43:30.787Z,7.63
2023-03-30T10:46:16.739Z,8.25
2023-03-30T10:49:05.492Z,7.40
2023-03-30T10:51:38.787Z,6.32
2023-03-30T10:54:20.640Z,6.88
2023-03-30T10:57:08.610Z,7.45
2023-03-30T11:00:07.414Z,7.35
2023-03-30T11:02:43.583Z,8.40
2023-03-30T11:05:16.954Z,8.18
2023-03-30T11:07:47.387Z,7.03
2023-03-30T11:10:21.947Z,7.45
2023-03-30T11:13:15.389Z,7.77
2023-03-30T11:15:45.495Z,7.50
2023-03-30T11:18:12.377Z,7.80
2023-03-30T11:21:12.976Z,7.82
2023-03-30T11:23:50.813Z,7.00
2023-03-30T11:26:27.445Z,7.10
2023-03-30T11:28:58.147Z,7.38
2023-03-30T11:31:40.640Z,8.05
2023-03-30T11:34:31.755Z,6.60
2023-03-30T11:37:20.200Z,7.68
2023-03-30T11:39:56.727Z,6.80
2023-03-30T11:42:31.298Z,7.60
2023-03-30T11:44:59.853Z,7.77
2023-03-30T11:47:32.867Z,7.65
2023-03-30T11:50:05.882Z,8.23
2023-03-30T11:52:56.425Z,7.57
2023-03-30T11:55:49.638Z,6.80
2023-03-30T11:58:47.527Z,5.88
2023-03-30T12:01:31.510Z,7.50
2023-03-30T12:04:42.925Z,5.20
2023-03-30T12:07:30.385Z,5.78
2023-03-30T12:10:04.525Z,5.63
2023-03-30T12:12:39.277Z,5.45
2023-03-30T12:15:15.901Z,5.90
2023-03-30T12:18:01.233Z,5.47
2023-03-30T12:20:32.791Z,5.53
2023-03-30T12:23:05.520Z,5.07
2023-03-30T12:25:38.286Z,5.35
2023-03-30T12:28:16.538Z,6.13
2023-03-30T12:30:53.278Z,5.22
2023-03-30T12:33:28.521Z,5.03
2023-03-30T12:35:57.332Z,4.53
2023-03-30T12:38:27.935Z,5.03
2023-03-30T12:41:20.678Z,4.70
2023-03-30T12:44:15.616Z,5.40
2023-03-30T12:46:58.750Z,6.03
2023-03-30T12:49:37.627Z,5.40
2023-03-30T12:52:16.036Z,5.38
2023-03-30T12:54:51.991Z,6.07
2023-03-30T12:57:46.912Z,6.45
2023-03-30T13:00:40.840Z,6.00
2023-03-30T13:03:21.440Z,5.45
2023-03-30T13:05:53.120Z,6.35
2023-03-30T13:08:54.050Z,5.80
2023-03-30T13:11:22.675Z,6.72
2023-03-30T13:14:25.417Z,6.57
2023-03-30T13:16:52.489Z,6.25
2023-03-30T13:19:25.674Z,6.35
2023-03-30T13:22:12.218Z,6.25
2023-03-30T13:24:42.225Z,6.63
2023-03-30T13:27:18.072Z,6.40
2023-03-30T13:30:02.536Z,5.55
2023-03-30T13:32:39.957Z,5.65
2023-03-30T13:35:41.540Z,5.78
2023-03-30T13:38:27.135Z,5.90
2023-03-30T13:41:12.104Z,6.30
2023-03-30T13:44:16.344Z,6.47
2023-03-30T13:46:53.868Z,6.85
2023-03-30T13:49:58.025Z,6.75
2023-03-30T13:52:32.760Z,9.05
2023-03-30T13:55:01.929Z,8.88
2023-03-30T13:57:36.814Z,7.50
2023-03-30T14:00:33.188Z,7.47
2023-03-30T14:05:42.781Z,5.75
2023-03-30T14:08:12.493Z,5.78
2023-03-30T14:10:39.558Z,5.88
2023-03-30T14:13:11.511Z,5.97
2023-03-30T14:15:39.720Z,6.43
2023-03-30T14:18:12.890Z,5.57
2023-03-30T14:20:56.937Z,6.28
2023-03-30T14:23:34.749Z,6.50
2023-03-30T14:26:05.470Z,6.47
2023-03-30T14:28:36.014Z,6.63
2023-03-30T14:31:11.417Z,6.00
2023-03-30T14:36:09.835Z,6.18
2023-03-30T14:38:40.058Z,6.57
2023-03-30T14:41:28.279Z,6.57
2023-03-30T14:44:02.224Z,7.05
2023-03-30T14:46:43.678Z,5.82
2023-03-30T14:49:23.240Z,6.43
2023-03-30T14:51:52.521Z,6.07
2023-03-30T14:54:23.055Z,5.35
2023-03-30T14:56:59.715Z,5.88
2023-03-30T14:59:28.136Z,6.82
2023-03-30T15:01:56.339Z,6.10
2023-03-30T15:04:27.441Z,6.65
2023-03-30T15:06:54.953Z,7.13
2023-03-30T15:09:24.347Z,6.45
2023-03-30T15:11:59.895Z,7.50
2023-03-30T15:16:57.081Z,6.72
2023-03-30T15:19:32.161Z,6.40
2023-03-30T15:22:03.170Z,6.43
2023-03-30T15:24:36.069Z,7.45
2023-03-30T15:27:08.323Z,5.32
2023-03-30T15:29:35.456Z,5.80
2023-03-30T15:32:16.110Z,6.30
2023-03-30T15:35:08.143Z,6.47
2023-03-30T15:37:36.904Z,5.70
2023-03-30T15:40:25.290Z,6.10
2023-03-30T15:43:17.050Z,6.18
2023-03-30T15:46:05.272Z,5.07
2023-03-30T15:48:42.244Z,5.82
2023-03-30T15:51:22.539Z,5.30
2023-03-30T15:53:55.665Z,4.95
2023-03-30T15:56:41.464Z,5.68
2023-03-30T15:59:15.703Z,5.22
2023-03-30T16:01:53.581Z,5.38
2023-03-30T16:04:23.421Z,4.05
2023-03-30T16:06:50.819Z,5.38
2023-03-30T16:09:17.868Z,4.50
2023-03-30T16:11:46.863Z,4.90
2023-03-30T16:14:17.705Z,4.20
2023-03-30T16:16:44.708Z,4.30
2023-03-30T16:19:18.382Z,4.53
2023-03-30T16:21:45.759Z,4.65
2023-03-30T16:24:12.794Z,4.97
2023-03-30T16:26:39.859Z,5.60
2023-03-30T16:29:21.902Z,4.80
2023-03-30T16:31:52.997Z,6.40
2023-03-30T16:34:20.473Z,6.10
2023-03-30T16:36:48.185Z,5.82
2023-03-30T16:39:23.719Z,5.65
2023-03-30T16:44:19.401Z,6.32
2023-03-30T16:46:47.336Z,6.10
2023-03-30T16:49:19.061Z,6.68
2023-03-30T16:51:46.434Z,6.13
2023-03-30T16:54:27.186Z,5.95
2023-03-30T16:56:57.051Z,7.28
2023-03-30T16:59:29.314Z,7.22
2023-03-30T17:01:56.954Z,5.93
2023-03-30T17:04:23.832Z,6.22
2023-03-30T17:06:51.095Z,6.22
2023-03-30T17:09:19.615Z,5.55
2023-03-30T17:11:48.243Z,5.55
2023-03-30T17:14:16.286Z,6.45
2023-03-30T17:16:43.299Z,6.20
2023-03-30T17:19:12.820Z,5.93
2023-03-30T17:21:43.874Z,5.80
2023-03-30T17:24:12.844Z,5.88
2023-03-30T17:26:40.604Z,5.03
2023-03-30T17:29:07.565Z,5.40
2023-03-30T17:31:34.467Z,6.45
2023-03-30T17:34:01.481Z,5.40
2023-03-30T17:36:29.158Z,4.80
2023-03-30T17:38:56.623Z,4.88
2023-03-30T17:41:23.656Z,4.25
2023-03-30T17:43:51.607Z,5.20
2023-03-30T17:46:19.826Z,5.30
2023-03-30T17:48:47.292Z,5.45
2023-03-30T17:51:14.172Z,6.00
2023-03-30T17:53:41.089Z,5.07
2023-03-30T17:56:11.662Z,5.25
2023-03-30T17:58:38.961Z,4.95
2023-03-30T18:01:08.607Z,5.25
2023-03-30T18:03:38.516Z,5.32
2023-03-30T18:06:06.422Z,6.00
2023-03-30T18:08:33.484Z,6.47
2023-03-30T18:11:01.475Z,5.30
2023-03-30T18:13:29.728Z,5.25
2023-03-30T18:15:58.548Z,5.15
2023-03-30T18:18:28.671Z,5.50
2023-03-30T18:20:57.437Z,5.07
2023-03-30T18:23:24.371Z,5.93
2023-03-30T18:25:51.611Z,6.03
2023-03-30T18:28:21.320Z,5.75
2023-03-30T18:30:48.943Z,5.97
2023-03-30T18:33:18.838Z,5.68
2023-03-30T18:35:48.256Z,6.80
2023-03-30T18:38:18.056Z,6.05
2023-03-30T18:40:49.461Z,7.15
2023-03-30T18:43:17.389Z,6.32
2023-03-30T18:45:51.194Z,6.60
2023-03-30T18:48:21.594Z,5.75
2023-03-30T18:50:56.297Z,7.15
2023-03-30T18:53:25.691Z,6.93
2023-03-30T18:55:57.060Z,6.72
2023-03-30T18:58:29.798Z,6.10
2023-03-30T19:00:57.355Z,6.35
2023-03-30T19:03:27.282Z,6.60
2023-03-30T19:05:54.676Z,6.50
2023-03-30T19:08:23.758Z,5.70
2023-03-30T19:10:52.820Z,7.35
2023-03-30T19:13:21.060Z,5.97
2023-03-30T19:15:49.580Z,6.60
2023-03-30T19:18:18.294Z,6.00
2023-03-30T19:20:45.902Z,6.57
2023-03-30T19:23:14.818Z,7.05
2023-03-30T19:25:43.780Z,6.22
2023-03-30T19:28:11.763Z,6.50
2023-03-30T19:30:40.140Z,5.88
2023-03-30T19:33:11.895Z,5.88
2023-03-30T19:35:46.518Z,7.15
2023-03-30T19:38:15.337Z,6.10
2023-03-30T19:40:42.861Z,7.05
2023-03-30T19:43:10.360Z,7.22
2023-03-30T19:45:37.386Z,6.47
2023-03-30T19:48:04.561Z,6.20
2023-03-30T19:50:31.775Z,6.80
2023-03-30T19:52:59.364Z,6.25
2023-03-30T19:55:27.010Z,5.38
2023-03-30T19:57:54.082Z,6.20
2023-03-30T20:00:21.269Z,5.28
2023-03-30T20:02:53.872Z,5.60
2023-03-30T20:05:22.894Z,6.25
2023-03-30T20:07:50.526Z,5.82
2023-03-30T20:10:23.908Z,6.30
2023-03-30T20:12:52.388Z,5.10
2023-03-30T20:15:20.490Z,6.15
2023-03-30T20:17:47.466Z,6.97
2023-03-30T20:20:17.056Z,7.13
2023-03-30T20:22:44.705Z,5.78
2023-03-30T20:25:14.222Z,5.72
2023-03-30T20:27:41.544Z,6.32
2023-03-30T20:30:09.839Z,5.50
2023-03-30T20:32:36.969Z,5.78
2023-03-30T20:35:05.166Z,6.80
2023-03-30T20:37:32.177Z,5.60
2023-03-30T20:40:03.719Z,8.02
2023-03-30T20:42:32.408Z,5.32
2023-03-30T20:45:00.812Z,6.05
2023-03-30T20:47:30.948Z,5.75
2023-03-30T20:49:59.068Z,6.18
2023-03-30T20:52:26.786Z,6.45
2023-03-30T20:54:54.342Z,5.68
2023-03-30T20:57:22.890Z,5.85
2023-03-30T20:59:52.640Z,6.35
2023-03-30T21:02:20.049Z,6.90
2023-03-30T21:04:47.380Z,5.20
2023-03-30T21:07:16.356Z,5.85
2023-03-30T21:09:43.649Z,5.45
2023-03-30T21:12:11.005Z,4.60
2023-03-30T21:14:38.007Z,5.78
2023-03-30T21:17:04.954Z,5.32
2023-03-30T21:19:32.001Z,5.88
2023-03-30T21:22:01.072Z,5.90
2023-03-30T21:24:28.490Z,5.15
2023-03-30T21:26:55.510Z,5.18
2023-03-30T21:29:23.271Z,5.55
2023-03-30T21:31:50.200Z,5.13
2023-03-30T21:34:18.726Z,6.05
2023-03-30T21:36:46.190Z,6.65
2023-03-30T21:39:13.557Z,5.50
2023-03-30T21:41:40.451Z,4.22
2023-03-30T21:44:08.057Z,5.15
2023-03-30T21:46:35.034Z,4.65
2023-03-30T21:49:02.040Z,5.15
2023-03-30T21:51:31.552Z,5.07
2023-03-30T21:53:59.201Z,5.53
2023-03-30T21:56:29.076Z,4.25
2023-03-30T21:58:56.534Z,4.07
2023-03-30T22:01:24.331Z,4.57
2023-03-30T22:03:52.508Z,3.35
2023-03-30T22:06:20.542Z,5.00
2023-03-30T22:08:47.674Z,4.40
2023-03-30T22:11:20.659Z,4.18
2023-03-30T22:13:48.942Z,3.60
2023-03-30T22:16:35.039Z,3.70
2023-03-30T22:19:02.953Z,4.13
2023-03-30T22:21:34.459Z,4.35
2023-03-30T22:24:03.803Z,4.00
2023-03-30T22:26:30.819Z,3.90
2023-03-30T22:28:57.807Z,3.75
2023-03-30T22:31:25.234Z,3.83
2023-03-30T22:33:53.603Z,3.72
2023-03-30T22:36:26.794Z,3.10
2023-03-30T22:38:55.934Z,3.45
2023-03-30T22:41:26.845Z,3.40
2023-03-30T22:43:56.632Z,3.50
2023-03-30T22:46:24.826Z,4.05
2023-03-30T22:48:52.743Z,3.67
2023-03-30T22:51:26.417Z,3.17
2023-03-30T22:53:58.550Z,3.67
2023-03-30T22:56:27.315Z,3.78
2023-03-30T22:58:54.470Z,3.90
2023-03-30T23:01:21.583Z,3.40
2023-03-30T23:03:48.696Z,4.43
2023-03-30T23:06:18.859Z,3.70
2023-03-30T23:08:48.572Z,4.65
2023-03-30T23:11:16.064Z,4.20
2023-03-30T23:13:42.959Z,3.38
2023-03-30T23:16:10.591Z,4.00
2023-03-30T23:18:38.308Z,3.80
2023-03-30T23:21:11.005Z,4.65
2023-03-30T23:23:38.513Z,4.07
2023-03-30T23:26:08.990Z,3.78
2023-03-30T23:28:42.880Z,4.45
2023-03-30T23:31:14.792Z,4.18
2023-03-30T23:33:42.795Z,3.83
2023-03-30T23:36:13.639Z,4.75
2023-03-30T23:38:41.441Z,4.38
2023-03-30T23:41:08.927Z,4.30
2023-03-30T23:43:35.837Z,4.93
2023-03-30T23:46:02.828Z,4.72
2023-03-30T23:48:30.119Z,3.75
2023-03-30T23:50:58.018Z,4.10
2023-03-30T23:53:26.432Z,4.18
2023-03-30T23:55:54.377Z,4.20
2023-03-30T23:58:21.446Z,3.85
